Parbold, United Kingdom
Current Conditions -  °F | °C
As of 6:20 PM on Monday 26 Jan 2015 (Local Time) from EGNH Reporting Station
Few Clouds Few Clouds  
Wind Chill: 38°   Ceiling: Unl
Heat Index: 43°   Visibility: 6mi
Dew Point: 37°   Wind: 8mph
Humidity: 81%   Direction: 300°WNW
Pressure: 30.3"   Gusts: NA
Location:  53.59°N, 2.77°W
Report Text: EGNH 261820Z 30007KT 9999 FEW032 06/03 Q1026
Loading
Personal Weather Stations






























Interactive Weather Map New forecast layout! Learn more

10-Day Weather Forecast

Advertisements
Track Severe Weather on mobile